Time;durP1;ratioP1;P1;durP2;ratioP2;P2;SDS_P1;SDS_P2;PMS_P1;PMS_P2;Temp;Humidity;BMP_temperature;BMP_pressure;BME280_temperature;BME280_humidity;BME280_pressure;Samples;Min_cycle;Max_cycle;Signal;HPM_P1;HPM_P2
2022/05/11 00:02:30;;;;;;;5.70;3.40;;;;;;;12.61;49.48;96861.36;107697;1268;39994;-80
2022/05/11 00:05:01;;;;;;;5.90;3.40;;;;;;;12.64;49.41;96862.50;107643;1268;43773;-80
2022/05/11 00:07:32;;;;;;;6.60;3.90;;;;;;;12.69;49.25;96866.06;107695;1268;43949;-80
2022/05/11 00:10:11;;;;;;;6.80;3.30;;;;;;;12.73;49.17;96865.17;107679;1268;35822;-80
2022/05/11 00:12:44;;;;;;;6.50;3.80;;;;;;;12.74;49.20;96861.63;107800;1268;32157;-80
2022/05/11 00:15:17;;;;;;;5.60;3.60;;;;;;;12.85;48.73;96861.18;107626;1268;43158;-79
2022/05/11 00:17:48;;;;;;;7.00;4.10;;;;;;;12.96;48.61;96861.04;107634;1270;41324;-80
2022/05/11 00:20:22;;;;;;;7.80;4.10;;;;;;;12.98;48.63;96861.17;107605;1268;73615;-80
2022/05/11 00:22:56;;;;;;;5.60;4.00;;;;;;;12.97;48.56;96857.46;107661;1268;43190;-79
2022/05/11 00:25:29;;;;;;;5.50;3.60;;;;;;;13.01;48.48;96853.94;107724;1268;29406;-80
2022/05/11 00:28:01;;;;;;;6.30;4.00;;;;;;;13.05;48.34;96850.14;107693;1268;33172;-80
2022/05/11 00:30:32;;;;;;;7.30;4.10;;;;;;;13.01;48.43;96850.58;107695;1268;32933;-79
2022/05/11 00:33:04;;;;;;;8.50;4.20;;;;;;;13.00;48.42;96850.55;107706;1268;35514;-80
2022/05/11 00:35:36;;;;;;;9.20;4.50;;;;;;;13.00;48.37;96853.10;107561;1268;81446;-80
2022/05/11 00:38:07;;;;;;;5.30;4.00;;;;;;;12.98;48.44;96849.30;107693;1268;34099;-80
2022/05/11 00:40:44;;;;;;;7.80;3.90;;;;;;;12.90;48.57;96849.19;107701;1268;43562;-80
2022/05/11 00:43:25;;;;;;;8.10;4.20;;;;;;;12.87;48.74;96847.48;107687;1268;36054;-79
2022/05/11 00:46:03;;;;;;;7.60;4.10;;;;;;;12.81;48.98;96842.66;107591;1268;99302;-79
2022/05/11 00:51:24;;;;;;;10.70;4.40;;;;;;;12.73;49.40;96840.85;107660;1268;34093;-80
2022/05/11 00:53:56;;;;;;;6.80;4.00;;;;;;;12.66;49.56;96839.88;107648;1268;43424;-80
2022/05/11 00:56:27;;;;;;;5.80;4.10;;;;;;;12.61;49.70;96838.23;107656;1268;46587;-79
2022/05/11 00:59:05;;;;;;;6.60;3.90;;;;;;;12.54;49.82;96837.58;107610;1270;34099;-79
2022/05/11 01:01:37;;;;;;;8.10;4.00;;;;;;;12.43;50.24;96836.90;107656;1268;47089;-79
2022/05/11 01:04:11;;;;;;;7.00;3.60;;;;;;;12.39;50.56;96833.13;107627;1271;32185;-79
2022/05/11 01:06:44;;;;;;;6.70;4.60;;;;;;;12.41;50.70;96830.06;107830;1268;47212;-80
2022/05/11 01:09:15;;;;;;;4.90;3.70;;;;;;;12.44;50.66;96826.31;107656;1268;92057;-79
2022/05/11 01:11:51;;;;;;;6.10;4.60;;;;;;;12.36;51.08;96824.42;107602;1270;41183;-79
2022/05/11 01:14:26;;;;;;;6.90;4.00;;;;;;;12.31;51.13;96828.49;107628;1271;42402;-79
2022/05/11 01:16:58;;;;;;;7.40;3.90;;;;;;;12.31;51.23;96826.52;107740;1268;37689;-79
2022/05/11 01:19:32;;;;;;;8.40;4.60;;;;;;;12.28;51.41;96827.46;107721;1268;45010;-79
2022/05/11 01:22:08;;;;;;;7.20;4.30;;;;;;;12.21;51.84;96831.35;107668;1268;59852;-80
2022/05/11 01:24:42;;;;;;;5.50;4.00;;;;;;;12.17;51.60;96834.33;107741;1268;35454;-79
2022/05/11 01:27:32;;;;;;;9.00;4.40;;;;;;;12.15;52.15;96833.71;107733;1268;43466;-79
2022/05/11 01:30:06;;;;;;;6.60;4.10;;;;;;;12.13;52.22;96830.28;107731;1268;34486;-80
2022/05/11 01:32:38;;;;;;;7.20;4.50;;;;;;;12.13;52.21;96833.63;107726;1268;32595;-79
2022/05/11 01:35:23;;;;;;;9.10;4.20;;;;;;;12.14;52.19;96835.38;107671;1268;43284;-80
2022/05/11 01:38:08;;;;;;;8.30;4.30;;;;;;;12.16;52.03;96830.52;107722;1268;38285;-79
2022/05/11 01:40:39;;;;;;;9.10;4.30;;;;;;;12.13;52.40;96827.73;107787;1268;39849;-80
2022/05/11 01:43:17;;;;;;;4.40;3.20;;;;;;;12.12;52.77;96821.10;107724;1268;37532;-80
2022/05/11 01:45:49;;;;;;;9.10;4.90;;;;;;;12.29;52.55;96822.39;107662;1268;47851;-80
2022/05/11 01:48:20;;;;;;;7.80;4.70;;;;;;;12.37;52.40;96817.40;107700;1268;34124;-80
2022/05/11 01:50:51;;;;;;;6.90;4.30;;;;;;;12.48;52.32;96820.52;107709;1268;39097;-79
2022/05/11 01:53:23;;;;;;;7.90;4.60;;;;;;;12.55;52.11;96818.10;107570;1270;44615;-80
2022/05/11 01:55:54;;;;;;;7.50;4.80;;;;;;;12.63;52.05;96820.60;107687;1268;44740;-80
2022/05/11 01:58:27;;;;;;;7.80;3.60;;;;;;;12.69;51.93;96822.88;107727;1268;33837;-80
2022/05/11 02:00:59;;;;;;;6.00;3.70;;;;;;;12.73;51.83;96817.44;107668;1268;39076;-80
2022/05/11 02:03:30;;;;;;;7.80;4.00;;;;;;;12.78;51.60;96819.70;107681;1268;42067;-80
2022/05/11 02:08:50;;;;;;;6.90;4.30;;;;;;;12.81;51.60;96819.78;107676;1268;42608;-80
2022/05/11 02:11:21;;;;;;;9.20;4.50;;;;;;;12.80;51.68;96812.92;107657;1268;45457;-80
2022/05/11 02:13:53;;;;;;;6.90;4.10;;;;;;;12.73;51.78;96811.85;107661;1269;34202;-80
2022/05/11 02:16:24;;;;;;;7.00;3.50;;;;;;;12.74;52.03;96808.85;107664;1270;39238;-80
2022/05/11 02:18:55;;;;;;;8.00;4.80;;;;;;;12.79;51.82;96809.00;107642;1268;51120;-80
2022/05/11 02:21:27;;;;;;;5.20;4.00;;;;;;;12.84;51.82;96812.09;107694;1268;44819;-80
2022/05/11 02:23:57;;;;;;;9.80;5.30;;;;;;;12.88;51.79;96810.06;107703;1268;33920;-79
2022/05/11 02:26:28;;;;;;;8.70;4.60;;;;;;;12.87;51.69;96809.64;107708;1268;43646;-80
2022/05/11 02:28:59;;;;;;;6.10;4.00;;;;;;;12.87;51.78;96810.27;107672;1268;43279;-80
2022/05/11 02:31:30;;;;;;;7.70;4.50;;;;;;;12.87;51.84;96807.08;107675;1268;35359;-80
2022/05/11 02:34:02;;;;;;;7.30;4.10;;;;;;;12.83;51.86;96806.66;107709;1268;41366;-80
2022/05/11 02:36:34;;;;;;;9.00;4.40;;;;;;;12.82;52.10;96799.33;107744;1268;35887;-80
2022/05/11 02:39:05;;;;;;;7.60;4.70;;;;;;;12.79;52.16;96802.45;107672;1268;40421;-80
2022/05/11 02:41:36;;;;;;;6.70;3.60;;;;;;;12.76;52.23;96801.96;107705;1268;50166;-80
2022/05/11 02:44:08;;;;;;;6.30;4.10;;;;;;;12.77;52.18;96798.48;107685;1268;33818;-80
2022/05/11 02:46:39;;;;;;;7.00;4.60;;;;;;;12.82;52.15;96799.35;107768;1267;31532;-80
2022/05/11 02:49:10;;;;;;;6.80;4.40;;;;;;;12.75;52.26;96801.55;107746;1268;34051;-80
2022/05/11 02:51:40;;;;;;;7.30;4.20;;;;;;;12.72;52.48;96798.73;107732;1268;40612;-80
2022/05/11 02:54:12;;;;;;;7.10;4.70;;;;;;;12.75;52.42;96793.57;107768;1268;43306;-80
2022/05/11 02:56:42;;;;;;;9.70;4.90;;;;;;;12.77;52.41;96795.94;107681;1270;38928;-80
2022/05/11 02:59:13;;;;;;;6.30;4.30;;;;;;;12.72;52.51;96794.67;107663;1270;38059;-80
2022/05/11 03:01:44;;;;;;;9.90;4.50;;;;;;;12.73;52.49;96792.06;107620;1268;48226;-79
2022/05/11 03:04:15;;;;;;;7.90;4.60;;;;;;;12.70;52.65;96790.03;107678;1268;41893;-79
2022/05/11 03:06:48;;;;;;;8.40;4.90;;;;;;;12.64;52.91;96785.79;107672;1268;39966;-80
2022/05/11 03:09:19;;;;;;;9.10;4.40;;;;;;;12.66;52.88;96787.42;107644;1268;42730;-80
2022/05/11 03:11:50;;;;;;;6.70;4.60;;;;;;;12.68;52.94;96788.09;107619;1268;51677;-79
2022/05/11 03:14:21;;;;;;;8.40;4.20;;;;;;;12.67;52.90;96790.45;107658;1268;37965;-80
2022/05/11 03:16:50;;;;;;;;;;;;;;;12.63;53.13;96789.94;107651;1268;40647;-80
2022/05/11 03:19:21;;;;;;;8.00;4.20;;;;;;;12.56;53.49;96791.83;107648;1268;46958;-79
2022/05/11 03:21:52;;;;;;;7.00;4.40;;;;;;;12.52;53.47;96791.64;107713;1268;42561;-80
2022/05/11 03:24:23;;;;;;;8.00;4.70;;;;;;;12.51;53.61;96788.94;107662;1268;36347;-80
2022/05/11 03:26:54;;;;;;;7.50;4.60;;;;;;;12.49;54.16;96787.69;107758;1268;29735;-80
2022/05/11 03:29:25;;;;;;;7.70;4.40;;;;;;;12.45;54.33;96794.92;107638;1268;60644;-79
2022/05/11 03:34:45;;;;;;;7.10;4.40;;;;;;;12.54;54.41;96792.04;107635;1268;37177;-78
2022/05/11 03:37:18;;;;;;;8.60;4.30;;;;;;;12.60;54.25;96794.98;107710;1268;46662;-79
2022/05/11 03:39:49;;;;;;;6.80;4.10;;;;;;;12.71;54.14;96800.81;107709;1268;36964;-79
2022/05/11 03:42:27;;;;;;;8.20;4.10;;;;;;;12.79;53.84;96794.58;107622;1270;33562;-79
2022/05/11 03:45:05;;;;;;;6.40;4.00;;;;;;;12.91;53.50;96789.10;107681;1268;43888;-79
2022/05/11 03:47:35;;;;;;;8.50;4.50;;;;;;;13.00;53.45;96793.27;107712;1268;37805;-80
2022/05/11 03:50:09;;;;;;;8.40;4.60;;;;;;;13.00;53.51;96794.87;107638;1270;41777;-80
2022/05/11 03:52:40;;;;;;;6.80;4.80;;;;;;;12.98;53.50;96794.06;107827;1268;47250;-80
2022/05/11 03:55:14;;;;;;;8.30;4.60;;;;;;;13.04;53.34;96792.63;107713;1268;41762;-80
2022/05/11 03:57:44;;;;;;;7.20;4.40;;;;;;;13.03;53.51;96790.45;107680;1268;45830;-79
2022/05/11 04:00:21;;;;;;;9.10;4.20;;;;;;;13.06;53.42;96787.06;107642;1268;43291;-79
2022/05/11 04:02:53;;;;;;;6.60;4.40;;;;;;;13.05;53.36;96788.89;107665;1268;34983;-80
2022/05/11 04:05:24;;;;;;;7.80;4.40;;;;;;;13.07;53.75;96790.48;107647;1268;46578;-79
2022/05/11 04:07:55;;;;;;;5.00;3.90;;;;;;;13.10;53.64;96787.23;107666;1270;43107;-80
2022/05/11 04:10:26;;;;;;;8.30;4.20;;;;;;;13.14;53.76;96789.83;107561;1270;43468;-80
2022/05/11 04:12:58;;;;;;;8.30;4.10;;;;;;;13.17;53.49;96788.62;107660;1267;47090;-79
2022/05/11 04:15:29;;;;;;;11.00;4.00;;;;;;;13.22;53.56;96792.54;107743;1268;36943;-79
2022/05/11 04:18:00;;;;;;;9.60;4.10;;;;;;;13.26;53.84;96795.05;107712;1268;49429;-80
2022/05/11 04:20:31;;;;;;;7.50;4.10;;;;;;;13.26;53.40;96788.50;107678;1268;41864;-79
2022/05/11 04:23:02;;;;;;;7.10;3.80;;;;;;;13.28;53.59;96790.59;107623;1270;44351;-79
2022/05/11 04:25:33;;;;;;;10.20;3.90;;;;;;;13.31;53.56;96791.55;107719;1268;40831;-80
2022/05/11 04:28:07;;;;;;;5.60;2.80;;;;;;;13.36;53.50;96794.40;107712;1268;47059;-79
2022/05/11 04:30:38;;;;;;;5.20;3.90;;;;;;;13.43;53.16;96790.88;107657;1268;46451;-80
2022/05/11 04:33:10;;;;;;;6.60;4.00;;;;;;;13.54;53.18;96784.45;107748;1268;49222;-80
2022/05/11 04:35:41;;;;;;;7.30;3.90;;;;;;;13.61;53.15;96786.30;107660;1270;40764;-80
2022/05/11 04:38:12;;;;;;;10.70;4.40;;;;;;;13.67;52.74;96784.45;107735;1270;44959;-80
2022/05/11 04:40:43;;;;;;;5.80;4.00;;;;;;;13.73;52.39;96778.44;107755;1268;39117;-80
2022/05/11 04:43:15;;;;;;;6.10;4.20;;;;;;;13.76;52.69;96787.34;107765;1268;33786;-80
2022/05/11 04:45:47;;;;;;;6.30;3.80;;;;;;;13.81;52.73;96782.77;107729;1268;33530;-79
2022/05/11 04:48:19;;;;;;;6.20;3.80;;;;;;;13.84;52.58;96786.71;107691;1268;41761;-79
2022/05/11 04:50:50;;;;;;;7.00;3.90;;;;;;;13.88;52.30;96785.52;107712;1268;35438;-80
2022/05/11 04:53:21;;;;;;;6.30;4.00;;;;;;;13.93;52.22;96781.27;107657;1268;46465;-80
2022/05/11 04:55:52;;;;;;;7.40;3.90;;;;;;;14.11;52.03;96783.55;107640;1268;39806;-79
2022/05/11 04:58:24;;;;;;;5.20;3.20;;;;;;;14.26;51.96;96790.50;107713;1268;38299;-79
2022/05/11 05:00:55;;;;;;;6.90;4.20;;;;;;;14.32;51.39;96795.39;107704;1268;39546;-79
2022/05/11 05:03:26;;;;;;;6.20;4.30;;;;;;;14.42;51.51;96796.23;107661;1268;45421;-80
2022/05/11 05:05:57;;;;;;;7.50;3.60;;;;;;;14.63;51.13;96800.66;107664;1268;42430;-79
2022/05/11 05:08:28;;;;;;;6.30;3.70;;;;;;;15.14;50.32;96798.45;107678;1267;49782;-80
2022/05/11 05:10:59;;;;;;;7.70;4.50;;;;;;;16.06;48.81;96796.20;107689;1268;39894;-80
2022/05/11 05:13:30;;;;;;;6.50;4.30;;;;;;;17.34;47.07;96798.59;107664;1268;43429;-80
2022/05/11 05:16:01;;;;;;;6.10;3.90;;;;;;;18.40;44.04;96798.56;107717;1268;41477;-80
2022/05/11 05:18:33;;;;;;;5.80;3.80;;;;;;;18.92;42.75;96797.15;107627;1268;43485;-80
2022/05/11 05:21:04;;;;;;;9.10;4.30;;;;;;;19.45;41.92;96799.15;107641;1268;36142;-80
2022/05/11 05:23:35;;;;;;;6.40;3.80;;;;;;;19.80;41.15;96799.09;107687;1268;34295;-80
2022/05/11 05:26:06;;;;;;;5.20;4.00;;;;;;;19.92;40.77;96801.84;107675;1268;42911;-80
2022/05/11 05:31:31;;;;;;;6.60;3.70;;;;;;;20.33;39.04;96799.12;107717;1268;35451;-80
2022/05/11 05:34:02;;;;;;;5.70;3.70;;;;;;;19.89;39.91;96806.90;107745;1268;32476;-81
2022/05/11 05:36:36;;;;;;;8.40;3.70;;;;;;;18.89;41.20;96806.98;107683;1270;35333;-80
2022/05/11 05:39:08;;;;;;;5.60;3.90;;;;;;;17.93;42.47;96816.09;107840;1268;36237;-80
2022/05/11 05:41:39;;;;;;;6.60;3.60;;;;;;;17.30;43.97;96818.80;107697;1268;34314;-80
2022/05/11 05:44:10;;;;;;;8.40;4.30;;;;;;;16.76;45.04;96817.80;107612;1268;42294;-81
2022/05/11 05:46:41;;;;;;;6.90;3.90;;;;;;;16.53;45.82;96819.94;107627;1269;53253;-80
2022/05/11 05:49:13;;;;;;;8.20;4.10;;;;;;;16.78;45.75;96819.75;107768;1268;43559;-81
2022/05/11 05:51:44;;;;;;;4.10;3.20;;;;;;;17.22;45.09;96814.61;107721;1268;44491;-81
2022/05/11 05:54:15;;;;;;;6.70;3.80;;;;;;;18.42;43.51;96814.95;107696;1268;38365;-80
2022/05/11 05:56:46;;;;;;;5.80;3.40;;;;;;;19.83;41.98;96808.77;107706;1267;40672;-80
2022/05/11 05:59:18;;;;;;;5.00;3.30;;;;;;;20.62;39.86;96811.23;107674;1268;37706;-80
2022/05/11 06:01:49;;;;;;;6.90;3.80;;;;;;;20.68;38.71;96808.34;107688;1268;32740;-80
2022/05/11 06:04:20;;;;;;;5.00;3.50;;;;;;;20.85;38.56;96807.30;107659;1268;41394;-81
2022/05/11 06:06:51;;;;;;;5.10;3.20;;;;;;;21.41;38.50;96811.72;107699;1268;32066;-81
2022/05/11 06:09:22;;;;;;;4.40;3.50;;;;;;;21.99;36.74;96805.16;107650;1268;38344;-81
2022/05/11 06:11:54;;;;;;;4.70;3.30;;;;;;;22.52;37.25;96805.40;107672;1268;34240;-81
2022/05/11 06:14:25;;;;;;;4.80;3.30;;;;;;;23.22;35.61;96803.04;107655;1270;42682;-81
2022/05/11 06:16:56;;;;;;;7.80;3.90;;;;;;;23.52;34.28;96799.77;107695;1270;36981;-81
2022/05/11 06:19:27;;;;;;;5.40;3.50;;;;;;;23.57;35.12;96801.19;107698;1268;36546;-81
2022/05/11 06:21:58;;;;;;;5.60;3.60;;;;;;;24.24;35.21;96801.88;107710;1268;38561;-81
2022/05/11 06:24:30;;;;;;;6.40;3.20;;;;;;;24.89;32.78;96796.98;107633;1270;44018;-81
2022/05/11 06:27:02;;;;;;;4.80;3.00;;;;;;;25.19;32.44;96798.27;107705;1268;37646;-81
2022/05/11 06:29:34;;;;;;;3.90;3.00;;;;;;;25.94;33.12;96799.11;107674;1269;41864;-81
2022/05/11 06:32:05;;;;;;;4.90;3.20;;;;;;;26.65;31.44;96793.52;107705;1270;34026;-81
2022/05/11 06:34:36;;;;;;;8.70;3.60;;;;;;;25.15;31.55;96791.66;107695;1268;35428;-80
2022/05/11 06:37:07;;;;;;;6.20;3.30;;;;;;;23.75;32.92;96791.85;107708;1268;46111;-80
2022/05/11 06:39:39;;;;;;;5.30;3.50;;;;;;;22.60;34.54;96796.80;107684;1268;52576;-81
2022/05/11 06:42:12;;;;;;;4.60;3.10;;;;;;;21.79;35.88;96799.78;107744;1268;32658;-80
2022/05/11 06:44:44;;;;;;;4.40;3.40;;;;;;;21.08;37.27;96799.20;107754;1268;43829;-81
2022/05/11 06:47:15;;;;;;;6.80;4.00;;;;;;;20.81;38.49;96800.25;107592;1270;45990;-76
2022/05/11 06:49:46;;;;;;;5.50;3.50;;;;;;;20.95;38.51;96796.28;107682;1269;35562;-80
2022/05/11 06:52:17;;;;;;;5.40;3.60;;;;;;;21.25;38.20;96802.92;107722;1270;48035;-81
2022/05/11 07:00:41;;;;;;;5.20;3.20;;;;;;;26.76;33.56;96790.31;107375;1274;41387;-82
2022/05/11 07:03:12;;;;;;;6.70;3.50;;;;;;;27.96;31.75;96786.02;107330;1274;39167;-81
2022/05/11 07:05:45;;;;;;;4.10;2.80;;;;;;;27.77;30.43;96786.77;107447;1271;34890;-81
2022/05/11 07:08:15;;;;;;;4.80;3.30;;;;;;;26.90;31.14;96792.84;107667;1270;38857;-80
2022/05/11 07:12:17;;;;;;;4.80;3.00;;;;;;;26.80;31.27;96789.82;107486;1270;51080;-80
2022/05/11 07:13:38;;;;;;;6.20;3.30;;;;;;;27.24;31.26;96790.61;107626;1270;34737;-81
2022/05/11 07:16:09;;;;;;;5.60;2.90;;;;;;;28.15;31.45;96789.48;107516;1270;59481;-81
2022/05/11 07:18:41;;;;;;;5.90;3.30;;;;;;;29.13;31.26;96787.76;107667;1270;40339;-81
2022/05/11 07:21:12;;;;;;;3.70;2.80;;;;;;;29.53;28.69;96782.09;107768;1270;43249;-81
2022/05/11 07:23:43;;;;;;;3.90;2.90;;;;;;;29.55;28.81;96782.77;107694;1270;34470;-82
2022/05/11 07:26:15;;;;;;;5.10;3.10;;;;;;;30.18;29.24;96788.65;107632;1270;32754;-82
2022/05/11 07:28:46;;;;;;;5.40;2.70;;;;;;;31.69;28.14;96785.50;107583;1270;31836;-81
2022/05/11 07:31:17;;;;;;;4.30;3.00;;;;;;;32.46;26.81;96783.98;107679;1270;37052;-81
2022/05/11 07:33:48;;;;;;;5.60;2.60;;;;;;;32.69;25.68;96785.10;107658;1270;48210;-82
2022/05/11 07:36:20;;;;;;;5.60;3.00;;;;;;;32.70;25.33;96778.57;107598;1270;58872;-81
2022/05/11 07:38:52;;;;;;;5.10;2.80;;;;;;;32.69;25.54;96775.05;107626;1270;34079;-82
2022/05/11 07:41:23;;;;;;;5.90;2.90;;;;;;;32.98;25.00;96770.22;107661;1270;47184;-82
2022/05/11 07:43:54;;;;;;;5.60;3.00;;;;;;;33.01;25.13;96767.82;107628;1270;63997;-82
2022/05/11 07:46:33;;;;;;;3.80;2.80;;;;;;;33.19;25.00;96769.81;107496;1270;48296;-82
2022/05/11 07:49:06;;;;;;;3.70;2.70;;;;;;;33.36;25.38;96770.90;107770;1270;36069;-82
2022/05/11 07:51:37;;;;;;;5.10;3.00;;;;;;;32.78;23.72;96764.82;107688;1270;37195;-82
2022/05/11 07:54:09;;;;;;;3.90;2.60;;;;;;;31.90;25.31;96766.59;107574;1270;34552;-82
2022/05/11 08:02:26;;;;;;;5.80;2.90;;;;;;;34.32;25.28;96756.13;107700;1270;37343;-83
2022/05/11 08:05:00;;;;;;;3.60;2.50;;;;;;;34.41;24.26;96758.10;107624;1268;44180;-82
2022/05/11 08:07:39;;;;;;;4.10;2.70;;;;;;;33.99;23.84;96753.19;107677;1270;39674;-83
2022/05/11 08:10:15;;;;;;;5.30;2.80;;;;;;;34.33;24.45;96754.44;107682;1270;34192;-83
2022/05/11 08:12:46;;;;;;;3.20;2.40;;;;;;;34.45;23.79;96753.05;107733;1270;40761;-81
2022/05/11 08:15:19;;;;;;;5.60;3.00;;;;;;;34.24;22.95;96750.89;107660;1268;50522;-82
2022/05/11 08:17:51;;;;;;;4.30;3.00;;;;;;;33.91;23.33;96751.33;107707;1268;39832;-82
2022/05/11 08:20:26;;;;;;;2.90;2.60;;;;;;;34.06;23.78;96750.20;107674;1268;47824;-82
2022/05/11 08:23:00;;;;;;;6.10;2.60;;;;;;;33.76;23.20;96748.43;107702;1268;33842;-83
2022/05/11 08:25:33;;;;;;;4.10;2.60;;;;;;;33.46;23.56;96750.36;107746;1268;30197;-82
2022/05/11 08:28:09;;;;;;;5.60;2.60;;;;;;;33.38;23.96;96747.39;107696;1268;46034;-82
2022/05/11 08:33:31;;;;;;;4.30;2.40;;;;;;;33.29;24.31;96743.63;107684;1268;32918;-82
2022/05/11 08:36:05;;;;;;;5.20;2.70;;;;;;;33.02;24.31;96744.72;107693;1268;38856;-82
2022/05/11 08:38:38;;;;;;;5.00;2.60;;;;;;;32.92;25.37;96747.41;107671;1268;47058;-82
2022/05/11 08:41:27;;;;;;;4.10;2.70;;;;;;;33.48;25.02;96745.65;107771;1270;38593;-82
2022/05/11 08:43:59;;;;;;;;;;;;;;;34.29;24.04;96737.95;107706;1268;39432;-81
2022/05/11 08:46:45;;;;;;;5.80;2.20;;;;;;;34.16;22.42;96740.05;107662;1268;43826;-82
2022/05/11 08:49:22;;;;;;;3.80;2.30;;;;;;;33.46;22.98;96738.48;107735;1268;32355;-81
2022/05/11 08:51:59;;;;;;;3.30;2.40;;;;;;;33.38;22.97;96738.27;107715;1268;50760;-82
2022/05/11 08:54:43;;;;;;;4.00;2.50;;;;;;;33.76;23.13;96732.35;107764;1268;41074;-81
2022/05/11 08:57:25;;;;;;;4.40;2.30;;;;;;;33.90;22.52;96730.20;107797;1268;34260;-82
2022/05/11 09:00:01;;;;;;;4.30;2.30;;;;;;;33.53;22.26;96729.92;107729;1268;32950;-82
2022/05/11 09:02:37;;;;;;;5.80;2.60;;;;;;;32.45;22.79;96725.16;107684;1268;46057;-81
2022/05/11 09:05:11;;;;;;;2.80;2.40;;;;;;;31.54;24.15;96729.64;107691;1268;42966;-82
2022/05/11 09:07:44;;;;;;;3.30;2.30;;;;;;;31.71;24.25;96726.03;107736;1270;48596;-82
2022/05/11 09:10:25;;;;;;;5.00;2.90;;;;;;;31.07;25.11;96731.87;107731;1270;35709;-82
2022/05/11 09:13:01;;;;;;;4.80;2.80;;;;;;;30.52;26.53;96734.14;107703;1268;35698;-81
2022/05/11 09:15:49;;;;;;;6.90;2.90;;;;;;;28.97;26.92;96725.60;107620;1268;44775;-81
2022/05/11 09:18:20;;;;;;;5.10;2.90;;;;;;;27.47;28.69;96730.73;107693;1268;43873;-81
2022/05/11 09:20:53;;;;;;;3.80;3.00;;;;;;;26.95;30.46;96732.15;107696;1270;35283;-81
2022/05/11 09:23:34;;;;;;;4.60;2.70;;;;;;;26.44;30.85;96727.02;107726;1268;44478;-81
2022/05/11 09:26:08;;;;;;;5.70;3.00;;;;;;;25.95;31.53;96731.84;107651;1269;37816;-81
2022/05/11 09:28:41;;;;;;;5.60;2.80;;;;;;;25.77;31.74;96734.39;107659;1268;49521;-81
2022/05/11 09:31:19;;;;;;;5.30;3.10;;;;;;;25.58;32.54;96734.27;107735;1270;42368;-81
2022/05/11 09:34:01;;;;;;;4.20;2.90;;;;;;;25.57;32.97;96735.73;107689;1268;37928;-81
2022/05/11 09:36:40;;;;;;;5.00;3.40;;;;;;;25.53;32.23;96728.02;107598;1268;43206;-81
2022/05/11 09:39:15;;;;;;;6.40;3.10;;;;;;;25.33;32.07;96728.89;107711;1268;40288;-81
2022/05/11 09:41:50;;;;;;;5.70;3.60;;;;;;;25.14;33.39;96722.61;107688;1268;35033;-80
2022/05/11 09:44:23;;;;;;;5.80;2.90;;;;;;;25.29;34.03;96729.55;107716;1268;35651;-81
2022/05/11 09:46:55;;;;;;;3.70;3.10;;;;;;;25.31;33.43;96722.81;107723;1268;37714;-81
2022/05/11 09:49:35;;;;;;;5.50;3.00;;;;;;;24.51;33.32;96720.30;107682;1268;38044;-81
2022/05/11 09:52:08;;;;;;;4.80;3.20;;;;;;;24.53;35.12;96720.88;107725;1268;32770;-81
2022/05/11 09:54:51;;;;;;;4.20;3.10;;;;;;;25.12;34.61;96721.04;107730;1268;33635;-82
2022/05/11 09:57:27;;;;;;;4.90;3.10;;;;;;;25.39;34.35;96723.36;107745;1268;30761;-81
2022/05/11 10:00:19;;;;;;;4.70;3.30;;;;;;;25.58;34.02;96718.75;107772;1268;34984;-81
2022/05/11 10:02:54;;;;;;;5.60;3.40;;;;;;;25.35;33.78;96715.88;107751;1268;32243;-81
2022/05/11 10:05:29;;;;;;;4.70;3.30;;;;;;;25.01;34.17;96716.33;107669;1268;41177;-81
2022/05/11 10:08:05;;;;;;;4.10;3.20;;;;;;;24.93;34.61;96712.57;107655;1268;62614;-81
2022/05/11 10:10:44;;;;;;;3.90;3.30;;;;;;;25.00;34.08;96714.55;107695;1268;41728;-81
2022/05/11 10:13:24;;;;;;;6.60;3.30;;;;;;;25.05;34.34;96717.17;107697;1270;45864;-81
2022/05/11 10:21:56;;;;;;;4.90;3.50;;;;;;;25.08;34.01;96712.39;107675;1270;51358;-81
2022/05/11 10:24:38;;;;;;;5.40;3.60;;;;;;;25.06;33.01;96708.42;107640;1269;44184;-81
2022/05/11 10:27:17;;;;;;;3.30;3.00;;;;;;;25.33;33.59;96707.26;107660;1268;42214;-81
2022/05/11 10:30:05;;;;;;;4.10;3.10;;;;;;;25.58;33.27;96701.29;107701;1268;34731;-80
2022/05/11 10:32:46;;;;;;;5.50;3.10;;;;;;;25.46;33.03;96704.05;107674;1268;38484;-81
2022/05/11 10:35:20;;;;;;;4.20;3.00;;;;;;;25.45;33.37;96700.78;107629;1268;36914;-80
2022/05/11 10:38:13;;;;;;;5.90;3.20;;;;;;;25.72;32.90;96697.89;107733;1268;37879;-81
2022/05/11 10:40:53;;;;;;;3.70;3.30;;;;;;;25.59;33.18;96698.83;107726;1268;39528;-81
2022/05/11 10:43:40;;;;;;;4.30;3.50;;;;;;;25.30;32.83;96701.71;107626;1268;46073;-81
2022/05/11 10:46:14;;;;;;;5.00;3.40;;;;;;;25.31;32.86;96696.92;107709;1268;43926;-80
2022/05/11 10:49:10;;;;;;;4.00;3.50;;;;;;;25.39;33.01;96696.92;107753;1268;31362;-81
2022/05/11 10:51:50;;;;;;;6.00;3.40;;;;;;;25.55;32.18;96692.65;107605;1268;45331;-81
2022/05/11 10:54:30;;;;;;;3.90;2.90;;;;;;;25.45;31.73;96690.71;107740;1268;31913;-81
2022/05/11 10:57:09;;;;;;;5.30;2.90;;;;;;;25.33;32.09;96688.41;107723;1268;36722;-81
2022/05/11 11:00:04;;;;;;;8.10;3.60;;;;;;;25.26;32.86;96690.44;107656;1268;49583;-81
2022/05/11 11:03:11;;;;;;;5.80;3.30;;;;;;;25.24;32.92;96693.75;107674;1268;36478;-81
2022/05/11 11:08:47;;;;;;;4.30;3.20;;;;;;;25.36;33.20;96687.13;107661;1268;35161;-81
2022/05/11 11:11:23;;;;;;;6.30;3.70;;;;;;;25.45;32.04;96681.55;107720;1268;34993;-81
2022/05/11 11:14:00;;;;;;;6.50;3.20;;;;;;;25.66;33.10;96680.44;107702;1270;36094;-81
2022/05/11 11:16:36;;;;;;;5.70;3.30;;;;;;;25.94;32.65;96681.55;107546;1268;254726;-81
2022/05/11 11:19:11;;;;;;;5.70;3.30;;;;;;;25.79;33.17;96670.39;107886;1268;35690;-82
2022/05/11 11:21:44;;;;;;;4.50;3.10;;;;;;;25.52;32.46;96675.02;107686;1270;38330;-82
2022/05/11 11:24:22;;;;;;;3.70;3.20;;;;;;;25.32;31.55;96670.64;107808;1268;29050;-81
2022/05/11 11:26:56;;;;;;;3.60;3.00;;;;;;;25.17;31.94;96673.11;107700;1270;43022;-81
2022/05/11 11:29:31;;;;;;;5.50;3.50;;;;;;;25.23;33.05;96674.58;107682;1268;38869;-80
2022/05/11 11:32:13;;;;;;;7.80;3.40;;;;;;;25.44;33.28;96672.77;107676;1269;39723;-81
2022/05/11 11:34:46;;;;;;;5.10;3.20;;;;;;;25.48;33.04;96674.37;107776;1270;36302;-81
2022/05/11 11:38:00;;;;;;;5.90;3.80;;;;;;;25.50;33.32;96674.55;107699;1269;39824;-80
2022/05/11 11:40:37;;;;;;;4.00;3.30;;;;;;;25.48;34.15;96666.77;107711;1270;31975;-81
2022/05/11 11:43:43;;;;;;;4.20;3.40;;;;;;;25.50;34.07;96673.54;107651;1270;45527;-81
2022/05/11 11:46:30;;;;;;;5.10;3.40;;;;;;;25.31;34.31;96671.95;107744;1268;35976;-81
2022/05/11 11:49:08;;;;;;;4.80;3.20;;;;;;;25.20;33.65;96676.26;107641;1269;43776;-81
2022/05/11 11:51:58;;;;;;;6.00;3.70;;;;;;;25.29;33.81;96673.48;107739;1270;36509;-82
2022/05/11 11:54:47;;;;;;;4.80;3.40;;;;;;;25.55;33.57;96666.05;107610;1270;49921;-81
2022/05/11 11:57:32;;;;;;;4.10;3.50;;;;;;;25.66;32.80;96663.52;107737;1270;39746;-81
2022/05/11 12:00:07;;;;;;;5.70;3.70;;;;;;;25.69;32.88;96661.09;107550;1270;36132;-81
2022/05/11 12:02:42;;;;;;;5.20;3.20;;;;;;;25.67;32.59;96657.65;107824;1268;33269;-81
2022/05/11 12:05:24;;;;;;;5.00;3.20;;;;;;;25.48;32.35;96654.43;107745;1271;38798;-81
2022/05/11 12:16:45;;;;;;;5.90;2.90;;;;;;;25.53;32.63;96643.62;107639;1270;40885;-80
2022/05/11 12:19:17;;;;;;;5.20;3.40;;;;;;;25.94;32.48;96641.41;107649;1270;38235;-79
2022/05/11 12:21:58;;;;;;;4.40;3.10;;;;;;;26.04;32.28;96633.73;107708;1268;35478;-81
2022/05/11 12:24:34;;;;;;;4.40;3.10;;;;;;;25.89;31.92;96636.73;107669;1268;32990;-81
2022/05/11 12:27:08;;;;;;;5.20;3.00;;;;;;;25.52;30.86;96631.52;107648;1270;38233;-81
2022/05/11 12:29:57;;;;;;;4.30;3.50;;;;;;;25.17;31.39;96632.58;107692;1270;33668;-81
2022/05/11 12:32:36;;;;;;;3.40;3.10;;;;;;;25.01;32.41;96631.92;107666;1268;39747;-81
2022/05/11 12:35:15;;;;;;;4.90;3.20;;;;;;;24.96;32.12;96634.89;107711;1268;39440;-81
2022/05/11 12:37:53;;;;;;;4.80;3.20;;;;;;;24.88;32.91;96633.39;107794;1268;33380;-81
2022/05/11 12:40:25;;;;;;;4.20;3.30;;;;;;;25.00;33.56;96630.77;107694;1270;34374;-81
2022/05/11 12:42:59;;;;;;;6.00;3.00;;;;;;;25.24;33.83;96624.73;107645;1270;39633;-81
2022/05/11 12:45:41;;;;;;;3.90;3.00;;;;;;;25.48;34.27;96626.29;107727;1270;34274;-81